sensor_id;sensor_type;location;lat;lon;timestamp;P1;durP1;ratioP1;P2;durP2;ratioP2
4980;SDS011;2507;50.392;7.482;2023-02-15T00:01:34;41.60;;;26.13;;
4980;SDS011;2507;50.392;7.482;2023-02-15T00:04:00;43.17;;;26.13;;
4980;SDS011;2507;50.392;7.482;2023-02-15T00:06:25;41.97;;;26.50;;
4980;SDS011;2507;50.392;7.482;2023-02-15T00:08:51;44.27;;;28.20;;
4980;SDS011;2507;50.392;7.482;2023-02-15T00:11:17;45.17;;;27.60;;
4980;SDS011;2507;50.392;7.482;2023-02-15T00:14:04;38.97;;;24.53;;
4980;SDS011;2507;50.392;7.482;2023-02-15T00:16:38;42.60;;;26.43;;
4980;SDS011;2507;50.392;7.482;2023-02-15T00:19:04;36.53;;;25.10;;
4980;SDS011;2507;50.392;7.482;2023-02-15T00:21:31;41.30;;;26.30;;
4980;SDS011;2507;50.392;7.482;2023-02-15T00:23:58;39.60;;;25.63;;
4980;SDS011;2507;50.392;7.482;2023-02-15T00:26:24;42.80;;;26.33;;
4980;SDS011;2507;50.392;7.482;2023-02-15T00:28:50;40.50;;;24.87;;
4980;SDS011;2507;50.392;7.482;2023-02-15T00:31:16;41.10;;;26.60;;
4980;SDS011;2507;50.392;7.482;2023-02-15T00:33:41;36.93;;;24.30;;
4980;SDS011;2507;50.392;7.482;2023-02-15T00:36:07;39.90;;;23.07;;
4980;SDS011;2507;50.392;7.482;2023-02-15T00:38:34;39.40;;;24.10;;
4980;SDS011;2507;50.392;7.482;2023-02-15T00:41:00;37.73;;;23.70;;
4980;SDS011;2507;50.392;7.482;2023-02-15T00:43:27;42.67;;;25.40;;
4980;SDS011;2507;50.392;7.482;2023-02-15T00:45:53;38.10;;;23.70;;
4980;SDS011;2507;50.392;7.482;2023-02-15T00:48:19;40.17;;;24.10;;
4980;SDS011;2507;50.392;7.482;2023-02-15T00:50:45;41.00;;;25.37;;
4980;SDS011;2507;50.392;7.482;2023-02-15T00:53:11;41.50;;;25.80;;
4980;SDS011;2507;50.392;7.482;2023-02-15T00:55:36;40.00;;;26.27;;
4980;SDS011;2507;50.392;7.482;2023-02-15T00:58:02;42.67;;;25.63;;
4980;SDS011;2507;50.392;7.482;2023-02-15T01:00:27;41.40;;;25.90;;
4980;SDS011;2507;50.392;7.482;2023-02-15T01:02:52;40.93;;;25.10;;
4980;SDS011;2507;50.392;7.482;2023-02-15T01:05:18;40.43;;;25.07;;
4980;SDS011;2507;50.392;7.482;2023-02-15T01:07:43;36.30;;;23.33;;
4980;SDS011;2507;50.392;7.482;2023-02-15T01:10:08;41.03;;;24.20;;
4980;SDS011;2507;50.392;7.482;2023-02-15T01:12:34;38.93;;;24.67;;
4980;SDS011;2507;50.392;7.482;2023-02-15T01:14:59;38.73;;;24.17;;
4980;SDS011;2507;50.392;7.482;2023-02-15T01:17:24;38.60;;;22.27;;
4980;SDS011;2507;50.392;7.482;2023-02-15T01:19:50;32.27;;;22.60;;
4980;SDS011;2507;50.392;7.482;2023-02-15T01:22:16;36.30;;;22.90;;
4980;SDS011;2507;50.392;7.482;2023-02-15T01:24:41;37.13;;;23.77;;
4980;SDS011;2507;50.392;7.482;2023-02-15T01:27:07;34.30;;;21.93;;
4980;SDS011;2507;50.392;7.482;2023-02-15T01:29:32;34.67;;;23.47;;
4980;SDS011;2507;50.392;7.482;2023-02-15T01:31:57;32.90;;;22.20;;
4980;SDS011;2507;50.392;7.482;2023-02-15T01:34:24;31.30;;;20.20;;
4980;SDS011;2507;50.392;7.482;2023-02-15T01:36:49;28.20;;;20.53;;
4980;SDS011;2507;50.392;7.482;2023-02-15T01:39:14;34.50;;;22.50;;
4980;SDS011;2507;50.392;7.482;2023-02-15T01:41:40;34.30;;;22.07;;
4980;SDS011;2507;50.392;7.482;2023-02-15T01:44:40;33.47;;;21.87;;
4980;SDS011;2507;50.392;7.482;2023-02-15T01:47:10;30.77;;;21.10;;
4980;SDS011;2507;50.392;7.482;2023-02-15T01:49:39;30.90;;;20.37;;
4980;SDS011;2507;50.392;7.482;2023-02-15T01:52:08;33.40;;;20.87;;
4980;SDS011;2507;50.392;7.482;2023-02-15T01:54:36;31.87;;;21.10;;
4980;SDS011;2507;50.392;7.482;2023-02-15T01:57:13;31.50;;;20.83;;
4980;SDS011;2507;50.392;7.482;2023-02-15T01:59:43;32.50;;;22.73;;
4980;SDS011;2507;50.392;7.482;2023-02-15T02:02:13;31.83;;;20.47;;
4980;SDS011;2507;50.392;7.482;2023-02-15T02:04:43;36.03;;;22.10;;
4980;SDS011;2507;50.392;7.482;2023-02-15T02:07:15;32.83;;;20.90;;
4980;SDS011;2507;50.392;7.482;2023-02-15T02:09:44;35.50;;;21.50;;
4980;SDS011;2507;50.392;7.482;2023-02-15T02:12:10;36.00;;;22.10;;
4980;SDS011;2507;50.392;7.482;2023-02-15T02:14:36;34.93;;;22.97;;
4980;SDS011;2507;50.392;7.482;2023-02-15T02:17:11;34.93;;;21.67;;
4980;SDS011;2507;50.392;7.482;2023-02-15T02:22:42;34.03;;;21.07;;
4980;SDS011;2507;50.392;7.482;2023-02-15T02:31:31;37.10;;;22.23;;
4980;SDS011;2507;50.392;7.482;2023-02-15T02:34:11;31.53;;;20.80;;
4980;SDS011;2507;50.392;7.482;2023-02-15T02:36:49;36.23;;;22.27;;
4980;SDS011;2507;50.392;7.482;2023-02-15T02:39:26;33.70;;;20.43;;
4980;SDS011;2507;50.392;7.482;2023-02-15T02:42:01;37.10;;;21.73;;
4980;SDS011;2507;50.392;7.482;2023-02-15T02:47:24;35.10;;;22.07;;
4980;SDS011;2507;50.392;7.482;2023-02-15T02:49:58;35.10;;;20.87;;
4980;SDS011;2507;50.392;7.482;2023-02-15T02:52:35;32.67;;;19.20;;
4980;SDS011;2507;50.392;7.482;2023-02-15T02:55:07;30.93;;;20.40;;
4980;SDS011;2507;50.392;7.482;2023-02-15T02:57:39;31.40;;;19.17;;
4980;SDS011;2507;50.392;7.482;2023-02-15T03:00:10;33.40;;;21.23;;
4980;SDS011;2507;50.392;7.482;2023-02-15T03:02:37;34.90;;;19.93;;
4980;SDS011;2507;50.392;7.482;2023-02-15T03:05:08;28.47;;;19.10;;
4980;SDS011;2507;50.392;7.482;2023-02-15T03:07:40;33.47;;;19.87;;
4980;SDS011;2507;50.392;7.482;2023-02-15T03:10:07;31.70;;;21.20;;
4980;SDS011;2507;50.392;7.482;2023-02-15T03:12:34;33.00;;;20.90;;
4980;SDS011;2507;50.392;7.482;2023-02-15T03:15:06;31.47;;;20.20;;
4980;SDS011;2507;50.392;7.482;2023-02-15T03:17:41;33.07;;;20.10;;
4980;SDS011;2507;50.392;7.482;2023-02-15T03:20:14;31.57;;;20.40;;
4980;SDS011;2507;50.392;7.482;2023-02-15T03:22:51;30.20;;;19.07;;
4980;SDS011;2507;50.392;7.482;2023-02-15T03:25:24;31.00;;;20.70;;
4980;SDS011;2507;50.392;7.482;2023-02-15T03:27:54;31.13;;;19.37;;
4980;SDS011;2507;50.392;7.482;2023-02-15T03:30:24;29.47;;;18.33;;
4980;SDS011;2507;50.392;7.482;2023-02-15T03:32:51;29.87;;;18.53;;
4980;SDS011;2507;50.392;7.482;2023-02-15T03:35:19;33.17;;;20.97;;
4980;SDS011;2507;50.392;7.482;2023-02-15T03:37:48;33.03;;;19.20;;
4980;SDS011;2507;50.392;7.482;2023-02-15T03:40:32;27.60;;;18.03;;
4980;SDS011;2507;50.392;7.482;2023-02-15T03:46:56;28.90;;;19.80;;
4980;SDS011;2507;50.392;7.482;2023-02-15T03:49:11;29.33;;;19.10;;
4980;SDS011;2507;50.392;7.482;2023-02-15T03:51:42;30.90;;;20.10;;
4980;SDS011;2507;50.392;7.482;2023-02-15T03:54:29;30.67;;;20.00;;
4980;SDS011;2507;50.392;7.482;2023-02-15T04:00:14;31.23;;;19.17;;
4980;SDS011;2507;50.392;7.482;2023-02-15T04:03:22;29.60;;;18.83;;
4980;SDS011;2507;50.392;7.482;2023-02-15T04:05:54;30.47;;;18.97;;
4980;SDS011;2507;50.392;7.482;2023-02-15T04:08:20;28.77;;;18.37;;
4980;SDS011;2507;50.392;7.482;2023-02-15T04:10:45;30.37;;;19.60;;
4980;SDS011;2507;50.392;7.482;2023-02-15T04:13:23;29.00;;;18.80;;
4980;SDS011;2507;50.392;7.482;2023-02-15T04:15:54;31.40;;;18.37;;
4980;SDS011;2507;50.392;7.482;2023-02-15T04:18:30;29.03;;;19.60;;
4980;SDS011;2507;50.392;7.482;2023-02-15T04:21:13;32.67;;;19.20;;
4980;SDS011;2507;50.392;7.482;2023-02-15T04:23:57;29.97;;;18.63;;
4980;SDS011;2507;50.392;7.482;2023-02-15T04:26:41;28.07;;;19.20;;
4980;SDS011;2507;50.392;7.482;2023-02-15T04:29:06;27.97;;;19.50;;
4980;SDS011;2507;50.392;7.482;2023-02-15T04:31:32;27.60;;;18.87;;
4980;SDS011;2507;50.392;7.482;2023-02-15T04:33:57;26.97;;;18.17;;
4980;SDS011;2507;50.392;7.482;2023-02-15T04:36:22;28.90;;;19.47;;
4980;SDS011;2507;50.392;7.482;2023-02-15T04:38:47;25.47;;;18.00;;
4980;SDS011;2507;50.392;7.482;2023-02-15T04:41:13;27.20;;;19.07;;
4980;SDS011;2507;50.392;7.482;2023-02-15T04:43:38;27.00;;;18.67;;
4980;SDS011;2507;50.392;7.482;2023-02-15T04:46:04;27.43;;;18.50;;
4980;SDS011;2507;50.392;7.482;2023-02-15T04:48:29;30.07;;;19.17;;
4980;SDS011;2507;50.392;7.482;2023-02-15T04:50:55;28.10;;;19.87;;
4980;SDS011;2507;50.392;7.482;2023-02-15T04:53:20;25.73;;;17.20;;
4980;SDS011;2507;50.392;7.482;2023-02-15T04:55:45;25.90;;;17.73;;
4980;SDS011;2507;50.392;7.482;2023-02-15T04:58:11;27.87;;;18.73;;
4980;SDS011;2507;50.392;7.482;2023-02-15T05:00:36;26.83;;;17.27;;
4980;SDS011;2507;50.392;7.482;2023-02-15T05:03:01;28.13;;;18.00;;
4980;SDS011;2507;50.392;7.482;2023-02-15T05:05:26;25.63;;;17.43;;
4980;SDS011;2507;50.392;7.482;2023-02-15T05:07:52;25.70;;;17.63;;
4980;SDS011;2507;50.392;7.482;2023-02-15T05:10:17;24.87;;;17.40;;
4980;SDS011;2507;50.392;7.482;2023-02-15T05:12:42;27.00;;;17.97;;
4980;SDS011;2507;50.392;7.482;2023-02-15T05:15:08;25.47;;;17.77;;
4980;SDS011;2507;50.392;7.482;2023-02-15T05:17:33;25.00;;;17.83;;
4980;SDS011;2507;50.392;7.482;2023-02-15T05:19:59;27.83;;;17.97;;
4980;SDS011;2507;50.392;7.482;2023-02-15T05:22:24;26.40;;;17.70;;
4980;SDS011;2507;50.392;7.482;2023-02-15T05:24:49;28.00;;;18.00;;
4980;SDS011;2507;50.392;7.482;2023-02-15T05:27:33;28.10;;;18.43;;
4980;SDS011;2507;50.392;7.482;2023-02-15T05:30:17;24.77;;;16.70;;
4980;SDS011;2507;50.392;7.482;2023-02-15T05:32:42;28.37;;;18.10;;
4980;SDS011;2507;50.392;7.482;2023-02-15T05:35:11;24.80;;;16.20;;
4980;SDS011;2507;50.392;7.482;2023-02-15T05:37:39;30.80;;;18.70;;
4980;SDS011;2507;50.392;7.482;2023-02-15T05:40:04;28.87;;;18.50;;
4980;SDS011;2507;50.392;7.482;2023-02-15T05:42:30;29.50;;;19.20;;
4980;SDS011;2507;50.392;7.482;2023-02-15T05:44:55;26.53;;;17.90;;
4980;SDS011;2507;50.392;7.482;2023-02-15T05:47:21;27.60;;;18.83;;
4980;SDS011;2507;50.392;7.482;2023-02-15T05:49:46;26.50;;;17.53;;
4980;SDS011;2507;50.392;7.482;2023-02-15T05:52:11;28.47;;;17.27;;
4980;SDS011;2507;50.392;7.482;2023-02-15T05:54:37;27.77;;;18.50;;
4980;SDS011;2507;50.392;7.482;2023-02-15T05:57:02;29.10;;;18.20;;
4980;SDS011;2507;50.392;7.482;2023-02-15T05:59:27;33.47;;;18.30;;
4980;SDS011;2507;50.392;7.482;2023-02-15T06:01:52;27.23;;;18.60;;
4980;SDS011;2507;50.392;7.482;2023-02-15T06:04:18;30.40;;;18.57;;
4980;SDS011;2507;50.392;7.482;2023-02-15T06:06:43;28.30;;;17.83;;
4980;SDS011;2507;50.392;7.482;2023-02-15T06:09:10;25.37;;;17.20;;
4980;SDS011;2507;50.392;7.482;2023-02-15T06:11:36;23.73;;;16.73;;
4980;SDS011;2507;50.392;7.482;2023-02-15T06:14:01;31.03;;;18.73;;
4980;SDS011;2507;50.392;7.482;2023-02-15T06:16:27;33.40;;;19.27;;
4980;SDS011;2507;50.392;7.482;2023-02-15T06:18:52;23.93;;;16.07;;
4980;SDS011;2507;50.392;7.482;2023-02-15T06:21:17;21.47;;;15.50;;
4980;SDS011;2507;50.392;7.482;2023-02-15T06:23:43;22.20;;;14.80;;
4980;SDS011;2507;50.392;7.482;2023-02-15T06:26:08;19.40;;;15.03;;
4980;SDS011;2507;50.392;7.482;2023-02-15T06:28:33;21.03;;;14.80;;
4980;SDS011;2507;50.392;7.482;2023-02-15T06:30:58;20.70;;;13.93;;
4980;SDS011;2507;50.392;7.482;2023-02-15T06:33:24;20.90;;;14.50;;
4980;SDS011;2507;50.392;7.482;2023-02-15T06:35:49;19.50;;;14.47;;
4980;SDS011;2507;50.392;7.482;2023-02-15T06:38:14;20.17;;;15.00;;
4980;SDS011;2507;50.392;7.482;2023-02-15T06:40:40;19.07;;;14.13;;
4980;SDS011;2507;50.392;7.482;2023-02-15T06:43:05;21.73;;;14.90;;
4980;SDS011;2507;50.392;7.482;2023-02-15T06:45:30;21.77;;;15.17;;
4980;SDS011;2507;50.392;7.482;2023-02-15T06:47:55;20.10;;;14.23;;
4980;SDS011;2507;50.392;7.482;2023-02-15T06:50:21;22.33;;;14.40;;
4980;SDS011;2507;50.392;7.482;2023-02-15T06:52:46;23.20;;;13.33;;
4980;SDS011;2507;50.392;7.482;2023-02-15T06:55:11;22.20;;;16.23;;
4980;SDS011;2507;50.392;7.482;2023-02-15T06:57:36;22.40;;;14.87;;
4980;SDS011;2507;50.392;7.482;2023-02-15T07:00:02;20.47;;;13.80;;
4980;SDS011;2507;50.392;7.482;2023-02-15T07:02:29;17.77;;;13.50;;
4980;SDS011;2507;50.392;7.482;2023-02-15T07:04:54;21.00;;;15.20;;
4980;SDS011;2507;50.392;7.482;2023-02-15T07:07:20;23.30;;;15.70;;
4980;SDS011;2507;50.392;7.482;2023-02-15T07:09:45;22.70;;;14.83;;
4980;SDS011;2507;50.392;7.482;2023-02-15T07:12:10;17.10;;;13.07;;
4980;SDS011;2507;50.392;7.482;2023-02-15T07:14:54;18.10;;;13.60;;
4980;SDS011;2507;50.392;7.482;2023-02-15T07:17:19;20.53;;;15.60;;
4980;SDS011;2507;50.392;7.482;2023-02-15T07:19:44;21.40;;;14.27;;
4980;SDS011;2507;50.392;7.482;2023-02-15T07:22:10;20.23;;;14.63;;
4980;SDS011;2507;50.392;7.482;2023-02-15T07:24:35;19.63;;;14.43;;
4980;SDS011;2507;50.392;7.482;2023-02-15T07:27:00;19.77;;;13.90;;
4980;SDS011;2507;50.392;7.482;2023-02-15T07:29:26;21.57;;;15.13;;
4980;SDS011;2507;50.392;7.482;2023-02-15T07:31:51;19.67;;;15.53;;
4980;SDS011;2507;50.392;7.482;2023-02-15T07:34:16;20.47;;;14.50;;
4980;SDS011;2507;50.392;7.482;2023-02-15T07:36:42;20.87;;;15.93;;
4980;SDS011;2507;50.392;7.482;2023-02-15T07:39:09;24.43;;;16.50;;
4980;SDS011;2507;50.392;7.482;2023-02-15T07:41:34;22.83;;;16.90;;
4980;SDS011;2507;50.392;7.482;2023-02-15T07:44:00;21.57;;;16.23;;
4980;SDS011;2507;50.392;7.482;2023-02-15T07:46:25;23.50;;;16.60;;
4980;SDS011;2507;50.392;7.482;2023-02-15T07:48:50;24.10;;;16.57;;
4980;SDS011;2507;50.392;7.482;2023-02-15T07:51:16;20.40;;;15.47;;
4980;SDS011;2507;50.392;7.482;2023-02-15T07:53:41;24.60;;;17.30;;
4980;SDS011;2507;50.392;7.482;2023-02-15T07:56:08;22.80;;;16.03;;
4980;SDS011;2507;50.392;7.482;2023-02-15T07:58:36;23.67;;;16.87;;
4980;SDS011;2507;50.392;7.482;2023-02-15T08:01:21;22.10;;;15.87;;
4980;SDS011;2507;50.392;7.482;2023-02-15T08:03:48;22.77;;;16.13;;
4980;SDS011;2507;50.392;7.482;2023-02-15T08:06:14;25.30;;;16.30;;
4980;SDS011;2507;50.392;7.482;2023-02-15T08:08:40;25.10;;;17.73;;
4980;SDS011;2507;50.392;7.482;2023-02-15T08:11:28;21.87;;;16.17;;
4980;SDS011;2507;50.392;7.482;2023-02-15T08:14:08;23.93;;;17.47;;
4980;SDS011;2507;50.392;7.482;2023-02-15T08:16:35;21.13;;;15.10;;
4980;SDS011;2507;50.392;7.482;2023-02-15T08:21:40;21.50;;;14.70;;
4980;SDS011;2507;50.392;7.482;2023-02-15T08:24:08;20.87;;;15.50;;
4980;SDS011;2507;50.392;7.482;2023-02-15T08:26:34;20.03;;;16.10;;
4980;SDS011;2507;50.392;7.482;2023-02-15T08:29:00;23.83;;;17.80;;
4980;SDS011;2507;50.392;7.482;2023-02-15T08:31:26;28.50;;;21.20;;
4980;SDS011;2507;50.392;7.482;2023-02-15T08:33:53;20.10;;;15.87;;
4980;SDS011;2507;50.392;7.482;2023-02-15T08:36:20;27.50;;;20.70;;
4980;SDS011;2507;50.392;7.482;2023-02-15T08:38:48;24.70;;;15.80;;
4980;SDS011;2507;50.392;7.482;2023-02-15T08:41:15;26.10;;;19.03;;
4980;SDS011;2507;50.392;7.482;2023-02-15T08:43:43;23.50;;;15.10;;
4980;SDS011;2507;50.392;7.482;2023-02-15T08:46:11;22.10;;;17.00;;
4980;SDS011;2507;50.392;7.482;2023-02-15T08:48:36;20.27;;;14.30;;
4980;SDS011;2507;50.392;7.482;2023-02-15T08:51:09;19.60;;;14.60;;
4980;SDS011;2507;50.392;7.482;2023-02-15T08:53:40;24.43;;;18.00;;
4980;SDS011;2507;50.392;7.482;2023-02-15T08:56:08;21.23;;;15.77;;
4980;SDS011;2507;50.392;7.482;2023-02-15T08:58:34;22.23;;;15.33;;
4980;SDS011;2507;50.392;7.482;2023-02-15T09:01:00;19.63;;;15.57;;
4980;SDS011;2507;50.392;7.482;2023-02-15T09:03:29;22.90;;;17.17;;
4980;SDS011;2507;50.392;7.482;2023-02-15T09:05:58;20.50;;;15.70;;
4980;SDS011;2507;50.392;7.482;2023-02-15T09:08:24;20.10;;;15.97;;
4980;SDS011;2507;50.392;7.482;2023-02-15T09:10:50;20.70;;;15.80;;
4980;SDS011;2507;50.392;7.482;2023-02-15T09:13:15;19.50;;;14.87;;
4980;SDS011;2507;50.392;7.482;2023-02-15T09:15:41;20.10;;;14.80;;
4980;SDS011;2507;50.392;7.482;2023-02-15T09:18:06;18.90;;;15.17;;
4980;SDS011;2507;50.392;7.482;2023-02-15T09:20:35;17.33;;;14.10;;
4980;SDS011;2507;50.392;7.482;2023-02-15T09:23:00;17.70;;;13.30;;
4980;SDS011;2507;50.392;7.482;2023-02-15T09:25:26;17.17;;;14.13;;
4980;SDS011;2507;50.392;7.482;2023-02-15T09:27:52;16.50;;;13.13;;
4980;SDS011;2507;50.392;7.482;2023-02-15T09:30:17;15.50;;;12.97;;
4980;SDS011;2507;50.392;7.482;2023-02-15T09:32:42;16.50;;;13.03;;
4980;SDS011;2507;50.392;7.482;2023-02-15T09:35:07;16.73;;;13.27;;
4980;SDS011;2507;50.392;7.482;2023-02-15T09:37:33;15.93;;;13.20;;
4980;SDS011;2507;50.392;7.482;2023-02-15T09:39:58;16.43;;;13.50;;
4980;SDS011;2507;50.392;7.482;2023-02-15T09:48:15;17.33;;;12.63;;
4980;SDS011;2507;50.392;7.482;2023-02-15T09:51:05;16.23;;;12.47;;
4980;SDS011;2507;50.392;7.482;2023-02-15T09:53:59;16.13;;;13.27;;
4980;SDS011;2507;50.392;7.482;2023-02-15T09:56:57;15.27;;;12.63;;
4980;SDS011;2507;50.392;7.482;2023-02-15T09:59:36;16.43;;;12.97;;
4980;SDS011;2507;50.392;7.482;2023-02-15T10:05:11;14.30;;;11.97;;
4980;SDS011;2507;50.392;7.482;2023-02-15T10:13:57;14.33;;;11.87;;
4980;SDS011;2507;50.392;7.482;2023-02-15T10:28:38;14.20;;;11.73;;
4980;SDS011;2507;50.392;7.482;2023-02-15T10:31:25;19.63;;;15.70;;
4980;SDS011;2507;50.392;7.482;2023-02-15T10:34:12;16.57;;;13.37;;
4980;SDS011;2507;50.392;7.482;2023-02-15T10:39:26;18.33;;;14.27;;
4980;SDS011;2507;50.392;7.482;2023-02-15T10:50:33;16.33;;;13.60;;
4980;SDS011;2507;50.392;7.482;2023-02-15T10:55:52;17.17;;;13.67;;
4980;SDS011;2507;50.392;7.482;2023-02-15T11:01:38;14.10;;;12.40;;
4980;SDS011;2507;50.392;7.482;2023-02-15T11:07:20;15.47;;;12.87;;
4980;SDS011;2507;50.392;7.482;2023-02-15T11:09:56;18.23;;;13.97;;
4980;SDS011;2507;50.392;7.482;2023-02-15T11:12:30;14.77;;;12.07;;
4980;SDS011;2507;50.392;7.482;2023-02-15T11:14:58;14.57;;;12.47;;
4980;SDS011;2507;50.392;7.482;2023-02-15T11:17:39;14.90;;;12.67;;
4980;SDS011;2507;50.392;7.482;2023-02-15T11:22:41;13.97;;;11.47;;
4980;SDS011;2507;50.392;7.482;2023-02-15T11:25:28;12.50;;;11.10;;
4980;SDS011;2507;50.392;7.482;2023-02-15T11:27:58;18.90;;;15.33;;
4980;SDS011;2507;50.392;7.482;2023-02-15T11:30:29;13.67;;;12.17;;
4980;SDS011;2507;50.392;7.482;2023-02-15T11:33:12;18.93;;;13.23;;
4980;SDS011;2507;50.392;7.482;2023-02-15T11:35:48;14.40;;;12.33;;
4980;SDS011;2507;50.392;7.482;2023-02-15T11:38:23;14.50;;;12.53;;
4980;SDS011;2507;50.392;7.482;2023-02-15T11:40:54;15.70;;;12.10;;
4980;SDS011;2507;50.392;7.482;2023-02-15T11:43:28;15.87;;;13.10;;
4980;SDS011;2507;50.392;7.482;2023-02-15T11:45:59;16.87;;;13.57;;
4980;SDS011;2507;50.392;7.482;2023-02-15T11:48:24;18.70;;;14.00;;
4980;SDS011;2507;50.392;7.482;2023-02-15T11:50:50;14.93;;;12.57;;
4980;SDS011;2507;50.392;7.482;2023-02-15T11:53:16;15.27;;;11.83;;
4980;SDS011;2507;50.392;7.482;2023-02-15T11:55:47;17.93;;;13.40;;
4980;SDS011;2507;50.392;7.482;2023-02-15T11:58:29;14.27;;;11.87;;
4980;SDS011;2507;50.392;7.482;2023-02-15T12:06:15;15.17;;;12.80;;
4980;SDS011;2507;50.392;7.482;2023-02-15T12:08:46;16.03;;;12.77;;
4980;SDS011;2507;50.392;7.482;2023-02-15T12:11:17;14.43;;;12.90;;
4980;SDS011;2507;50.392;7.482;2023-02-15T12:16:25;17.93;;;12.87;;
4980;SDS011;2507;50.392;7.482;2023-02-15T12:18:53;16.40;;;14.67;;
4980;SDS011;2507;50.392;7.482;2023-02-15T12:21:26;18.13;;;13.77;;
4980;SDS011;2507;50.392;7.482;2023-02-15T12:23:55;19.00;;;13.80;;
4980;SDS011;2507;50.392;7.482;2023-02-15T12:26:30;14.60;;;13.03;;
4980;SDS011;2507;50.392;7.482;2023-02-15T12:28:59;18.53;;;12.53;;
4980;SDS011;2507;50.392;7.482;2023-02-15T12:33:59;12.23;;;10.90;;
4980;SDS011;2507;50.392;7.482;2023-02-15T12:36:32;14.90;;;11.70;;
4980;SDS011;2507;50.392;7.482;2023-02-15T12:41:37;12.93;;;11.63;;
4980;SDS011;2507;50.392;7.482;2023-02-15T12:46:39;12.70;;;10.63;;
4980;SDS011;2507;50.392;7.482;2023-02-15T12:49:06;12.07;;;10.13;;
4980;SDS011;2507;50.392;7.482;2023-02-15T12:51:53;14.67;;;11.53;;
4980;SDS011;2507;50.392;7.482;2023-02-15T12:54:26;13.80;;;11.00;;
4980;SDS011;2507;50.392;7.482;2023-02-15T12:56:55;12.70;;;11.07;;
4980;SDS011;2507;50.392;7.482;2023-02-15T12:59:22;11.97;;;10.73;;
4980;SDS011;2507;50.392;7.482;2023-02-15T13:01:48;13.90;;;11.93;;
4980;SDS011;2507;50.392;7.482;2023-02-15T13:04:26;12.80;;;11.40;;
4980;SDS011;2507;50.392;7.482;2023-02-15T13:06:54;13.50;;;11.10;;
4980;SDS011;2507;50.392;7.482;2023-02-15T13:12:32;12.17;;;10.83;;
4980;SDS011;2507;50.392;7.482;2023-02-15T13:14:59;11.43;;;10.23;;
4980;SDS011;2507;50.392;7.482;2023-02-15T13:17:28;15.30;;;13.00;;
4980;SDS011;2507;50.392;7.482;2023-02-15T13:19:57;22.03;;;17.97;;
4980;SDS011;2507;50.392;7.482;2023-02-15T13:22:35;18.23;;;11.63;;
4980;SDS011;2507;50.392;7.482;2023-02-15T13:25:14;12.73;;;10.77;;
4980;SDS011;2507;50.392;7.482;2023-02-15T13:27:44;11.47;;;10.30;;
4980;SDS011;2507;50.392;7.482;2023-02-15T13:33:02;12.50;;;11.20;;
4980;SDS011;2507;50.392;7.482;2023-02-15T13:35:39;14.27;;;10.30;;
4980;SDS011;2507;50.392;7.482;2023-02-15T13:41:01;13.00;;;10.10;;
4980;SDS011;2507;50.392;7.482;2023-02-15T13:43:40;10.73;;;9.67;;
4980;SDS011;2507;50.392;7.482;2023-02-15T13:49:19;12.37;;;10.90;;
4980;SDS011;2507;50.392;7.482;2023-02-15T13:54:56;11.23;;;9.90;;
4980;SDS011;2507;50.392;7.482;2023-02-15T13:57:43;12.33;;;10.37;;
4980;SDS011;2507;50.392;7.482;2023-02-15T14:00:25;11.60;;;10.10;;
4980;SDS011;2507;50.392;7.482;2023-02-15T14:05:29;11.27;;;10.00;;
4980;SDS011;2507;50.392;7.482;2023-02-15T14:10:47;11.17;;;9.33;;
4980;SDS011;2507;50.392;7.482;2023-02-15T14:16:19;11.70;;;9.37;;
4980;SDS011;2507;50.392;7.482;2023-02-15T14:21:47;12.07;;;10.30;;
4980;SDS011;2507;50.392;7.482;2023-02-15T14:24:20;12.03;;;9.60;;
4980;SDS011;2507;50.392;7.482;2023-02-15T14:27:06;13.57;;;10.27;;
4980;SDS011;2507;50.392;7.482;2023-02-15T14:29:51;12.63;;;10.43;;
4980;SDS011;2507;50.392;7.482;2023-02-15T14:32:41;12.10;;;10.47;;
4980;SDS011;2507;50.392;7.482;2023-02-15T14:35:13;12.00;;;9.97;;
4980;SDS011;2507;50.392;7.482;2023-02-15T14:40:23;11.67;;;10.47;;
4980;SDS011;2507;50.392;7.482;2023-02-15T14:45:58;12.23;;;10.93;;
4980;SDS011;2507;50.392;7.482;2023-02-15T14:48:33;12.40;;;11.10;;
4980;SDS011;2507;50.392;7.482;2023-02-15T14:51:06;16.40;;;10.60;;
4980;SDS011;2507;50.392;7.482;2023-02-15T15:01:34;13.60;;;11.17;;
4980;SDS011;2507;50.392;7.482;2023-02-15T15:04:03;14.03;;;11.50;;
4980;SDS011;2507;50.392;7.482;2023-02-15T15:06:34;11.40;;;10.30;;
4980;SDS011;2507;50.392;7.482;2023-02-15T15:11:41;14.63;;;11.93;;
4980;SDS011;2507;50.392;7.482;2023-02-15T15:14:08;14.30;;;10.93;;
4980;SDS011;2507;50.392;7.482;2023-02-15T15:19:09;12.10;;;10.70;;
4980;SDS011;2507;50.392;7.482;2023-02-15T15:22:12;12.47;;;11.17;;
4980;SDS011;2507;50.392;7.482;2023-02-15T15:32:37;12.43;;;10.80;;
4980;SDS011;2507;50.392;7.482;2023-02-15T15:46:18;14.73;;;12.00;;
4980;SDS011;2507;50.392;7.482;2023-02-15T15:48:49;14.50;;;11.60;;
4980;SDS011;2507;50.392;7.482;2023-02-15T15:51:20;12.60;;;11.30;;
4980;SDS011;2507;50.392;7.482;2023-02-15T15:53:50;16.80;;;12.70;;
4980;SDS011;2507;50.392;7.482;2023-02-15T15:56:23;15.33;;;13.00;;
4980;SDS011;2507;50.392;7.482;2023-02-15T15:58:54;16.27;;;13.77;;
4980;SDS011;2507;50.392;7.482;2023-02-15T16:01:27;14.83;;;12.13;;
4980;SDS011;2507;50.392;7.482;2023-02-15T16:03:54;14.37;;;12.20;;
4980;SDS011;2507;50.392;7.482;2023-02-15T16:06:29;13.43;;;12.00;;
4980;SDS011;2507;50.392;7.482;2023-02-15T16:08:56;13.07;;;11.80;;
4980;SDS011;2507;50.392;7.482;2023-02-15T16:11:24;14.93;;;12.93;;
4980;SDS011;2507;50.392;7.482;2023-02-15T16:13:52;16.43;;;12.77;;
4980;SDS011;2507;50.392;7.482;2023-02-15T16:16:22;13.90;;;12.50;;
4980;SDS011;2507;50.392;7.482;2023-02-15T16:18:50;13.20;;;11.80;;
4980;SDS011;2507;50.392;7.482;2023-02-15T16:21:23;16.10;;;13.70;;
4980;SDS011;2507;50.392;7.482;2023-02-15T16:29:27;14.60;;;12.60;;
4980;SDS011;2507;50.392;7.482;2023-02-15T16:32:04;20.53;;;13.90;;
4980;SDS011;2507;50.392;7.482;2023-02-15T16:34:50;58.20;;;35.80;;
4980;SDS011;2507;50.392;7.482;2023-02-15T16:37:18;24.07;;;18.20;;
4980;SDS011;2507;50.392;7.482;2023-02-15T16:39:46;34.40;;;24.13;;
4980;SDS011;2507;50.392;7.482;2023-02-15T16:42:17;109.63;;;67.10;;
4980;SDS011;2507;50.392;7.482;2023-02-15T16:44:44;54.30;;;38.40;;
4980;SDS011;2507;50.392;7.482;2023-02-15T16:47:15;60.90;;;45.63;;
4980;SDS011;2507;50.392;7.482;2023-02-15T16:49:45;38.90;;;27.93;;
4980;SDS011;2507;50.392;7.482;2023-02-15T16:52:15;22.20;;;18.67;;
4980;SDS011;2507;50.392;7.482;2023-02-15T16:54:45;25.63;;;19.73;;
4980;SDS011;2507;50.392;7.482;2023-02-15T16:57:18;29.17;;;22.17;;
4980;SDS011;2507;50.392;7.482;2023-02-15T16:59:47;32.47;;;22.40;;
4980;SDS011;2507;50.392;7.482;2023-02-15T17:02:16;22.43;;;18.67;;
4980;SDS011;2507;50.392;7.482;2023-02-15T17:07:38;23.00;;;18.30;;
4980;SDS011;2507;50.392;7.482;2023-02-15T17:13:00;16.63;;;13.53;;
4980;SDS011;2507;50.392;7.482;2023-02-15T17:17:58;16.23;;;14.50;;
4980;SDS011;2507;50.392;7.482;2023-02-15T17:20:26;17.17;;;14.83;;
4980;SDS011;2507;50.392;7.482;2023-02-15T17:22:52;17.40;;;15.23;;
4980;SDS011;2507;50.392;7.482;2023-02-15T17:25:19;19.80;;;15.87;;
4980;SDS011;2507;50.392;7.482;2023-02-15T17:27:54;21.67;;;18.47;;
4980;SDS011;2507;50.392;7.482;2023-02-15T17:30:28;21.33;;;15.63;;
4980;SDS011;2507;50.392;7.482;2023-02-15T17:32:58;18.83;;;16.23;;
4980;SDS011;2507;50.392;7.482;2023-02-15T17:35:29;19.60;;;15.77;;
4980;SDS011;2507;50.392;7.482;2023-02-15T17:38:03;19.20;;;16.37;;
4980;SDS011;2507;50.392;7.482;2023-02-15T17:40:32;20.23;;;16.27;;
4980;SDS011;2507;50.392;7.482;2023-02-15T17:42:59;18.67;;;15.50;;
4980;SDS011;2507;50.392;7.482;2023-02-15T17:45:26;23.90;;;19.70;;
4980;SDS011;2507;50.392;7.482;2023-02-15T17:47:57;23.40;;;19.37;;
4980;SDS011;2507;50.392;7.482;2023-02-15T17:50:24;30.97;;;24.83;;